createdAt,value
2023-02-14T00:01:20.612Z,22.88
2023-02-14T00:03:49.400Z,23.50
2023-02-14T00:06:17.243Z,23.27
2023-02-14T00:08:44.870Z,22.27
2023-02-14T00:11:13.871Z,21.65
2023-02-14T00:14:01.349Z,23.30
2023-02-14T00:16:28.838Z,22.92
2023-02-14T00:19:05.556Z,22.55
2023-02-14T00:21:38.389Z,22.52
2023-02-14T00:24:08.622Z,22.17
2023-02-14T00:26:38.596Z,21.83
2023-02-14T00:29:12.652Z,21.63
2023-02-14T00:31:40.877Z,21.98
2023-02-14T00:34:09.210Z,20.88
2023-02-14T00:36:37.319Z,20.95
2023-02-14T00:39:06.215Z,21.92
2023-02-14T00:41:34.068Z,22.33
2023-02-14T00:44:02.394Z,22.08
2023-02-14T00:46:29.781Z,21.77
2023-02-14T00:48:57.425Z,21.70
2023-02-14T00:51:24.971Z,22.17
2023-02-14T00:53:52.660Z,21.98
2023-02-14T00:56:20.975Z,20.52
2023-02-14T00:58:48.728Z,22.70
2023-02-14T01:01:19.158Z,22.10
2023-02-14T01:03:46.847Z,21.05
2023-02-14T01:06:14.430Z,21.63
2023-02-14T01:08:41.893Z,21.38
2023-02-14T01:11:16.924Z,22.40
2023-02-14T01:13:47.851Z,23.75
2023-02-14T01:16:17.990Z,23.05
2023-02-14T01:18:46.444Z,21.83
2023-02-14T01:21:27.677Z,23.83
2023-02-14T01:23:58.844Z,22.77
2023-02-14T01:26:27.463Z,21.67
2023-02-14T01:28:56.032Z,22.83
2023-02-14T01:31:26.566Z,22.23
2023-02-14T01:33:54.747Z,22.17
2023-02-14T01:36:29.929Z,23.13
2023-02-14T01:39:00.326Z,21.90
2023-02-14T01:41:31.384Z,21.67
2023-02-14T01:44:02.088Z,22.45
2023-02-14T01:46:32.546Z,21.58
2023-02-14T01:49:09.188Z,21.85
2023-02-14T01:51:41.178Z,21.30
2023-02-14T01:56:41.544Z,21.25
2023-02-14T01:59:12.694Z,21.75
2023-02-14T02:01:44.227Z,22.50
2023-02-14T02:04:15.905Z,22.15
2023-02-14T02:06:47.127Z,22.27
2023-02-14T02:09:27.537Z,22.20
2023-02-14T02:11:55.431Z,21.70
2023-02-14T02:14:23.669Z,22.45
2023-02-14T02:17:10.257Z,21.90
2023-02-14T02:20:10.904Z,22.08
2023-02-14T02:23:19.466Z,21.23
2023-02-14T02:26:15.304Z,21.40
2023-02-14T02:29:09.520Z,22.30
2023-02-14T02:31:45.268Z,21.58
2023-02-14T02:34:40.307Z,22.50
2023-02-14T02:37:28.741Z,21.52
2023-02-14T02:40:07.969Z,20.42
2023-02-14T02:43:16.647Z,21.75
2023-02-14T02:46:14.692Z,21.70
2023-02-14T02:48:59.732Z,21.77
2023-02-14T02:52:18.885Z,21.05
2023-02-14T02:54:55.547Z,22.05
2023-02-14T02:57:29.648Z,21.75
2023-02-14T02:59:59.079Z,19.90
2023-02-14T03:02:57.332Z,21.15
2023-02-14T03:05:27.364Z,15.40
2023-02-14T03:07:54.744Z,16.45
2023-02-14T03:10:27.365Z,18.25
2023-02-14T03:13:19.734Z,17.40
2023-02-14T03:15:51.524Z,17.55
2023-02-14T03:18:22.062Z,17.80
2023-02-14T03:20:55.648Z,17.13
2023-02-14T03:23:32.226Z,17.85
2023-02-14T03:26:01.136Z,19.27
2023-02-14T03:28:45.862Z,16.48
2023-02-14T03:31:33.546Z,16.58
2023-02-14T03:34:14.577Z,19.65
2023-02-14T03:36:50.701Z,20.05
2023-02-14T03:39:27.103Z,15.10
2023-02-14T03:42:06.190Z,16.33
2023-02-14T03:44:36.429Z,16.98
2023-02-14T03:47:13.736Z,16.38
2023-02-14T03:49:46.866Z,17.20
2023-02-14T03:52:15.639Z,15.98
2023-02-14T03:54:46.429Z,16.17
2023-02-14T03:57:20.792Z,17.17
2023-02-14T03:59:48.735Z,17.88
2023-02-14T04:02:21.705Z,16.45
2023-02-14T04:04:51.674Z,16.95
2023-02-14T04:07:22.303Z,16.48
2023-02-14T04:09:50.544Z,18.73
2023-02-14T04:12:32.353Z,19.38
2023-02-14T04:15:03.816Z,19.17
2023-02-14T04:17:50.045Z,19.77
2023-02-14T04:20:17.482Z,17.25
2023-02-14T04:22:46.416Z,17.77
2023-02-14T04:25:14.622Z,17.35
2023-02-14T04:28:01.144Z,20.70
2023-02-14T04:30:28.558Z,23.17
2023-02-14T04:32:55.887Z,24.30
2023-02-14T04:35:23.229Z,22.75
2023-02-14T04:37:50.544Z,23.45
2023-02-14T04:40:18.056Z,22.83
2023-02-14T04:42:46.496Z,20.83
2023-02-14T04:45:14.710Z,18.25
2023-02-14T04:47:42.036Z,18.23
2023-02-14T04:50:10.142Z,18.88
2023-02-14T04:52:37.672Z,22.35
2023-02-14T04:55:05.869Z,25.15
2023-02-14T04:57:33.246Z,24.88
2023-02-14T05:00:00.874Z,21.33
2023-02-14T05:02:28.195Z,21.55
2023-02-14T05:04:55.545Z,20.35
2023-02-14T05:07:22.828Z,24.38
2023-02-14T05:09:50.201Z,22.63
2023-02-14T05:12:17.581Z,22.35
2023-02-14T05:14:45.341Z,20.15
2023-02-14T05:17:12.806Z,21.20
2023-02-14T05:19:40.301Z,22.42
2023-02-14T05:22:07.621Z,20.38
2023-02-14T05:24:37.340Z,19.83
2023-02-14T05:27:04.645Z,18.85
2023-02-14T05:29:31.973Z,18.50
2023-02-14T05:31:59.503Z,20.20
2023-02-14T05:34:27.014Z,20.40
2023-02-14T05:36:54.972Z,20.83
2023-02-14T05:39:24.373Z,21.65
2023-02-14T05:41:51.662Z,19.02
2023-02-14T05:44:19.093Z,25.70
2023-02-14T05:46:46.401Z,18.52
2023-02-14T05:49:13.959Z,22.48
2023-02-14T05:51:41.298Z,19.27
2023-02-14T05:54:10.866Z,17.85
2023-02-14T05:56:38.479Z,19.00
2023-02-14T05:59:05.865Z,19.33
2023-02-14T06:01:33.256Z,21.30
2023-02-14T06:04:00.730Z,22.80
2023-02-14T06:06:28.083Z,21.85
2023-02-14T06:08:55.514Z,21.15
2023-02-14T06:11:22.833Z,22.40
2023-02-14T06:13:50.233Z,20.25
2023-02-14T06:16:18.479Z,18.73
2023-02-14T06:18:45.782Z,19.63
2023-02-14T06:21:13.180Z,24.42
2023-02-14T06:23:40.662Z,24.88
2023-02-14T06:26:08.070Z,21.42
2023-02-14T06:28:35.414Z,19.58
2023-02-14T06:31:03.413Z,20.38
2023-02-14T06:33:32.376Z,22.67
2023-02-14T06:35:59.840Z,22.55
2023-02-14T06:38:27.185Z,18.35
2023-02-14T06:40:54.629Z,22.08
2023-02-14T06:43:22.060Z,26.90
2023-02-14T06:45:49.450Z,22.70
2023-02-14T06:48:16.884Z,19.88
2023-02-14T06:50:44.259Z,20.95
2023-02-14T06:53:11.663Z,21.58
2023-02-14T06:55:43.781Z,20.67
2023-02-14T06:58:11.562Z,29.25
2023-02-14T07:00:39.847Z,24.45
2023-02-14T07:03:08.023Z,26.10
2023-02-14T07:05:35.812Z,23.90
2023-02-14T07:08:03.417Z,24.20
2023-02-14T07:10:30.736Z,24.60
2023-02-14T07:12:58.092Z,22.42
2023-02-14T07:15:25.482Z,23.98
2023-02-14T07:17:53.044Z,27.55
2023-02-14T07:20:20.397Z,21.70
2023-02-14T07:22:49.834Z,22.63
2023-02-14T07:25:17.644Z,24.77
2023-02-14T07:27:45.004Z,25.33
2023-02-14T07:30:12.916Z,24.67
2023-02-14T07:32:42.034Z,21.85
2023-02-14T07:35:09.972Z,23.30
2023-02-14T07:37:37.375Z,19.65
2023-02-14T07:40:08.764Z,23.88
2023-02-14T07:42:41.603Z,19.55
2023-02-14T07:45:20.764Z,20.45
2023-02-14T07:47:50.696Z,18.52
2023-02-14T07:50:18.968Z,17.45
2023-02-14T07:52:46.589Z,18.80
2023-02-14T07:55:14.315Z,18.38
2023-02-14T07:57:41.808Z,18.52
2023-02-14T08:00:09.689Z,23.30
2023-02-14T08:02:40.150Z,17.77
2023-02-14T08:05:07.984Z,19.40
2023-02-14T08:07:35.592Z,20.05
2023-02-14T08:10:02.917Z,22.85
2023-02-14T08:12:48.514Z,20.10
2023-02-14T08:15:35.389Z,19.75
2023-02-14T08:18:02.943Z,22.83
2023-02-14T08:20:30.213Z,22.27
2023-02-14T08:22:58.260Z,19.60
2023-02-14T08:25:43.918Z,19.63
2023-02-14T08:28:11.473Z,19.88
2023-02-14T08:30:38.878Z,19.17
2023-02-14T08:33:07.286Z,20.80
2023-02-14T08:35:35.653Z,22.98
2023-02-14T08:38:03.754Z,24.55
2023-02-14T08:40:31.523Z,21.85
2023-02-14T08:42:58.921Z,23.33
2023-02-14T08:45:26.495Z,24.42
2023-02-14T08:47:53.963Z,21.63
2023-02-14T08:50:21.477Z,22.23
2023-02-14T08:52:49.607Z,23.80
2023-02-14T08:55:17.431Z,25.10
2023-02-14T08:57:44.886Z,24.85
2023-02-14T09:00:32.125Z,25.65
2023-02-14T09:02:59.999Z,23.70
2023-02-14T09:05:27.811Z,23.40
2023-02-14T09:07:56.653Z,23.52
2023-02-14T09:10:26.856Z,23.95
2023-02-14T09:12:54.300Z,20.58
2023-02-14T09:15:21.694Z,19.65
2023-02-14T09:17:49.061Z,20.52
2023-02-14T09:20:16.555Z,21.10
2023-02-14T09:22:44.096Z,19.80
2023-02-14T09:25:12.753Z,20.25
2023-02-14T09:27:40.308Z,18.67
2023-02-14T09:30:09.387Z,21.58
2023-02-14T09:32:36.857Z,24.35
2023-02-14T09:35:04.307Z,23.40
2023-02-14T09:37:50.016Z,23.35
2023-02-14T09:40:20.114Z,22.40
2023-02-14T09:42:53.377Z,22.63
2023-02-14T09:45:24.947Z,21.00
2023-02-14T09:48:07.539Z,19.73
2023-02-14T09:50:54.630Z,20.58
2023-02-14T09:53:25.319Z,20.13
2023-02-14T09:56:17.117Z,20.45
2023-02-14T09:59:05.012Z,19.80
2023-02-14T10:01:54.459Z,18.30
2023-02-14T10:04:30.688Z,19.60
2023-02-14T10:07:12.192Z,20.95
2023-02-14T10:09:54.573Z,19.20
2023-02-14T10:12:34.176Z,21.50
2023-02-14T10:15:10.752Z,18.58
2023-02-14T10:17:47.416Z,18.20
2023-02-14T10:20:21.933Z,19.85
2023-02-14T10:23:05.603Z,20.90
2023-02-14T10:25:48.407Z,20.90
2023-02-14T10:28:28.247Z,18.80
2023-02-14T10:31:13.752Z,22.27
2023-02-14T10:33:45.353Z,22.95
2023-02-14T10:36:32.109Z,20.90
2023-02-14T10:39:12.733Z,24.25
2023-02-14T10:41:40.033Z,21.15
2023-02-14T10:44:28.917Z,18.98
2023-02-14T10:47:07.160Z,19.15
2023-02-14T10:49:47.474Z,19.10
2023-02-14T10:52:25.885Z,20.30
2023-02-14T10:54:56.969Z,22.52
2023-02-14T10:57:31.531Z,20.38
2023-02-14T11:00:06.837Z,20.55
2023-02-14T11:02:40.089Z,20.58
2023-02-14T11:05:10.422Z,22.98
2023-02-14T11:07:37.747Z,22.10
2023-02-14T11:10:14.006Z,25.15
2023-02-14T11:12:41.881Z,22.15
2023-02-14T11:15:09.264Z,19.35
2023-02-14T11:17:37.466Z,19.63
2023-02-14T11:20:22.327Z,19.90
2023-02-14T11:22:51.458Z,14.35
2023-02-14T11:25:23.501Z,16.42
2023-02-14T11:30:28.042Z,14.88
2023-02-14T11:32:56.391Z,15.88
2023-02-14T11:35:30.390Z,14.15
2023-02-14T11:37:58.333Z,16.58
2023-02-14T11:40:27.592Z,12.88
2023-02-14T11:43:12.861Z,10.75
2023-02-14T11:45:43.899Z,9.63
2023-02-14T11:48:36.558Z,9.40
2023-02-14T11:51:15.669Z,8.93
2023-02-14T11:53:53.512Z,11.32
2023-02-14T11:56:22.276Z,9.18
2023-02-14T11:58:58.640Z,9.13
2023-02-14T12:01:30.039Z,8.60
2023-02-14T12:04:01.822Z,7.50
2023-02-14T12:06:32.375Z,7.20
2023-02-14T12:09:23.980Z,7.65
2023-02-14T12:12:19.249Z,7.53
2023-02-14T12:14:46.893Z,7.82
2023-02-14T12:17:37.641Z,9.00
2023-02-14T12:20:14.156Z,11.38
2023-02-14T12:22:49.851Z,10.77
2023-02-14T12:25:25.598Z,10.38
2023-02-14T12:28:03.492Z,10.98
2023-02-14T12:30:35.241Z,8.90
2023-02-14T12:33:04.970Z,10.68
2023-02-14T12:35:54.632Z,9.63
2023-02-14T12:38:47.203Z,9.63
2023-02-14T12:43:56.685Z,10.85
2023-02-14T12:46:41.425Z,10.10
2023-02-14T12:49:27.657Z,13.07
2023-02-14T12:52:15.885Z,14.77
2023-02-14T12:54:55.614Z,12.50
2023-02-14T12:57:35.092Z,12.73
2023-02-14T13:00:24.194Z,16.88
2023-02-14T13:03:07.066Z,16.77
2023-02-14T13:05:42.682Z,15.75
2023-02-14T13:08:34.419Z,20.73
2023-02-14T13:11:16.460Z,20.45
2023-02-14T13:13:52.741Z,20.02
2023-02-14T13:16:44.121Z,20.48
2023-02-14T13:19:50.033Z,18.92
2023-02-14T13:22:21.999Z,20.50
2023-02-14T13:24:58.565Z,21.48
2023-02-14T13:27:34.488Z,20.50
2023-02-14T13:30:12.102Z,21.65
2023-02-14T13:32:42.408Z,22.40
2023-02-14T13:35:17.418Z,22.27
2023-02-14T13:37:52.820Z,24.63
2023-02-14T13:40:26.340Z,24.15
2023-02-14T13:42:56.968Z,22.60
2023-02-14T13:45:32.466Z,23.40
2023-02-14T13:48:22.228Z,23.60
2023-02-14T13:51:06.231Z,28.75
2023-02-14T13:53:45.673Z,26.75
2023-02-14T13:56:13.220Z,24.45
2023-02-14T13:59:04.498Z,25.70
2023-02-14T14:01:42.843Z,26.27
2023-02-14T14:04:28.438Z,33.72
2023-02-14T14:07:04.791Z,33.85
2023-02-14T14:09:44.463Z,33.05
2023-02-14T14:12:27.073Z,33.85
2023-02-14T14:15:06.381Z,33.15
2023-02-14T14:17:40.400Z,33.17
2023-02-14T14:20:16.391Z,35.03
2023-02-14T14:22:58.671Z,34.08
2023-02-14T14:28:00.369Z,32.40
2023-02-14T14:30:32.993Z,31.92
2023-02-14T14:33:26.155Z,32.65
2023-02-14T14:35:54.365Z,32.92
2023-02-14T14:38:22.453Z,32.90
2023-02-14T14:40:51.331Z,32.85
2023-02-14T14:43:31.581Z,33.22
2023-02-14T14:46:02.267Z,30.73
2023-02-14T14:48:38.874Z,32.33
2023-02-14T14:51:08.962Z,31.00
2023-02-14T14:53:59.989Z,33.33
2023-02-14T14:56:31.154Z,32.40
2023-02-14T14:59:15.376Z,32.17
2023-02-14T15:01:44.140Z,31.00
2023-02-14T15:04:16.003Z,32.47
2023-02-14T15:06:43.688Z,32.25
2023-02-14T15:09:16.905Z,32.70
2023-02-14T15:12:05.008Z,32.42
2023-02-14T15:14:36.390Z,33.03
2023-02-14T15:17:13.207Z,35.83
2023-02-14T15:19:44.210Z,34.60
2023-02-14T15:22:19.705Z,33.92
2023-02-14T15:24:48.100Z,47.08
2023-02-14T15:27:18.141Z,35.72
2023-02-14T15:30:00.420Z,34.03
2023-02-14T15:32:32.049Z,33.05
2023-02-14T15:35:03.152Z,33.30
2023-02-14T15:37:32.319Z,35.70
2023-02-14T15:40:01.734Z,34.58
2023-02-14T15:42:33.060Z,34.08
2023-02-14T15:45:19.243Z,34.95
2023-02-14T15:47:49.433Z,34.70
2023-02-14T15:50:24.395Z,36.08
2023-02-14T15:53:02.379Z,34.90
2023-02-14T15:55:31.490Z,35.30
2023-02-14T15:58:06.868Z,35.50
2023-02-14T16:00:35.061Z,34.83
2023-02-14T16:03:07.269Z,34.67
2023-02-14T16:05:34.783Z,36.65
2023-02-14T16:08:08.048Z,36.38
2023-02-14T16:10:37.793Z,36.85
2023-02-14T16:13:18.622Z,37.50
2023-02-14T16:16:06.603Z,36.60
2023-02-14T16:18:44.011Z,37.30
2023-02-14T16:21:15.909Z,39.95
2023-02-14T16:23:46.052Z,39.70
2023-02-14T16:26:14.180Z,38.40
2023-02-14T16:28:43.319Z,40.13
2023-02-14T16:31:16.457Z,39.58
2023-02-14T16:33:44.078Z,40.72
2023-02-14T16:36:30.010Z,41.58
2023-02-14T16:38:58.256Z,42.13
2023-02-14T16:41:28.207Z,41.88
2023-02-14T16:43:59.686Z,43.47
2023-02-14T16:46:31.647Z,43.22
2023-02-14T16:51:29.452Z,41.53
2023-02-14T16:54:00.369Z,42.50
2023-02-14T16:56:33.862Z,41.42
2023-02-14T16:59:01.229Z,42.85
2023-02-14T17:01:28.782Z,41.10
2023-02-14T17:03:56.121Z,42.38
2023-02-14T17:06:27.650Z,43.13
2023-02-14T17:08:57.156Z,44.00
2023-02-14T17:11:26.297Z,45.90
2023-02-14T17:13:54.610Z,43.40
2023-02-14T17:16:22.516Z,45.67
2023-02-14T17:18:52.301Z,43.67
2023-02-14T17:21:21.887Z,45.50
2023-02-14T17:23:49.755Z,45.50
2023-02-14T17:26:18.801Z,45.28
2023-02-14T17:28:46.666Z,46.72
2023-02-14T17:31:14.371Z,45.28
2023-02-14T17:33:41.785Z,46.05
2023-02-14T17:36:12.235Z,46.15
2023-02-14T17:38:40.569Z,46.85
2023-02-14T17:41:23.605Z,46.38
2023-02-14T17:43:52.995Z,47.92
2023-02-14T17:46:21.058Z,47.53
2023-02-14T17:48:49.264Z,47.70
2023-02-14T17:51:20.290Z,47.85
2023-02-14T17:53:48.474Z,48.33
2023-02-14T17:56:22.014Z,48.22
2023-02-14T17:58:51.536Z,48.08
2023-02-14T18:01:22.687Z,47.78
2023-02-14T18:03:52.069Z,48.20
2023-02-14T18:06:19.976Z,47.33
2023-02-14T18:08:49.901Z,48.25
2023-02-14T18:11:19.618Z,47.17
2023-02-14T18:13:47.108Z,47.70
2023-02-14T18:16:18.053Z,46.95
2023-02-14T18:18:45.691Z,47.47
2023-02-14T18:21:15.388Z,45.60
2023-02-14T18:23:43.358Z,46.40
2023-02-14T18:26:13.258Z,47.35
2023-02-14T18:28:41.158Z,46.90
2023-02-14T18:31:14.549Z,47.95
2023-02-14T18:33:42.509Z,48.35
2023-02-14T18:36:15.868Z,45.65
2023-02-14T18:38:45.305Z,46.20
2023-02-14T18:41:15.500Z,47.08
2023-02-14T18:43:44.577Z,50.90
2023-02-14T18:46:15.065Z,47.72
2023-02-14T18:48:49.546Z,46.45
2023-02-14T18:51:23.622Z,47.80
2023-02-14T18:53:52.347Z,47.47
2023-02-14T18:56:23.026Z,47.28
2023-02-14T18:58:53.846Z,48.75
2023-02-14T19:01:24.236Z,49.40
2023-02-14T19:03:52.951Z,50.90
2023-02-14T19:06:22.174Z,48.83
2023-02-14T19:08:49.566Z,48.28
2023-02-14T19:11:19.987Z,50.38
2023-02-14T19:13:50.033Z,48.30
2023-02-14T19:16:20.834Z,51.72
2023-02-14T19:18:49.811Z,53.88
2023-02-14T19:21:20.501Z,52.42
2023-02-14T19:23:48.524Z,52.03
2023-02-14T19:26:18.173Z,50.10
2023-02-14T19:28:47.234Z,51.67
2023-02-14T19:31:15.563Z,51.80
2023-02-14T19:33:45.321Z,49.65
2023-02-14T19:36:17.519Z,49.38
2023-02-14T19:38:48.213Z,46.80
2023-02-14T19:41:19.679Z,46.80
2023-02-14T19:43:48.830Z,44.45
2023-02-14T19:46:17.836Z,42.85
2023-02-14T19:48:46.208Z,42.45
2023-02-14T19:51:21.331Z,41.67
2023-02-14T19:53:49.735Z,42.38
2023-02-14T19:56:21.548Z,37.58
2023-02-14T19:58:50.319Z,38.35
2023-02-14T20:01:32.981Z,39.67
2023-02-14T20:04:00.758Z,39.88
2023-02-14T20:06:29.549Z,38.80
2023-02-14T20:08:57.393Z,38.30
2023-02-14T20:11:33.017Z,39.47
2023-02-14T20:14:01.223Z,39.63
2023-02-14T20:16:30.909Z,39.72
2023-02-14T20:19:00.478Z,41.05
2023-02-14T20:21:28.433Z,40.00
2023-02-14T20:24:01.065Z,38.97
2023-02-14T20:26:31.182Z,40.33
2023-02-14T20:29:00.222Z,39.40
2023-02-14T20:31:27.557Z,40.33
2023-02-14T20:33:56.761Z,39.65
2023-02-14T20:36:24.785Z,40.20
2023-02-14T20:38:56.492Z,38.95
2023-02-14T20:41:24.503Z,38.95
2023-02-14T20:43:52.098Z,37.53
2023-02-14T20:46:19.960Z,38.63
2023-02-14T20:48:47.593Z,37.78
2023-02-14T20:51:17.373Z,39.03
2023-02-14T20:53:46.360Z,39.20
2023-02-14T20:56:15.428Z,36.85
2023-02-14T20:58:43.227Z,37.30
2023-02-14T21:01:13.298Z,36.78
2023-02-14T21:04:01.527Z,34.65
2023-02-14T21:06:32.854Z,35.10
2023-02-14T21:09:01.583Z,34.38
2023-02-14T21:11:31.707Z,33.08
2023-02-14T21:14:01.472Z,33.38
2023-02-14T21:16:30.188Z,32.38
2023-02-14T21:18:59.646Z,32.53
2023-02-14T21:21:35.463Z,32.90
2023-02-14T21:24:11.948Z,33.70
2023-02-14T21:26:39.594Z,33.15
2023-02-14T21:29:08.086Z,32.08
2023-02-14T21:31:36.282Z,34.40
2023-02-14T21:34:04.783Z,32.83
2023-02-14T21:36:35.988Z,34.00
2023-02-14T21:39:04.956Z,34.27
2023-02-14T21:41:32.904Z,34.13
2023-02-14T21:44:02.535Z,35.50
2023-02-14T21:46:36.034Z,34.92
2023-02-14T21:49:23.459Z,33.58
2023-02-14T21:51:51.033Z,34.08
2023-02-14T21:54:18.426Z,35.67
2023-02-14T21:56:45.995Z,34.70
2023-02-14T21:59:13.854Z,34.58
2023-02-14T22:01:42.820Z,32.97
2023-02-14T22:04:12.259Z,34.35
2023-02-14T22:06:41.956Z,34.60
2023-02-14T22:09:12.302Z,32.65
2023-02-14T22:11:39.994Z,34.30
2023-02-14T22:14:07.327Z,35.15
2023-02-14T22:16:36.806Z,35.75
2023-02-14T22:19:05.263Z,34.45
2023-02-14T22:21:33.611Z,32.88
2023-02-14T22:24:01.550Z,31.48
2023-02-14T22:26:31.148Z,31.77
2023-02-14T22:29:00.449Z,31.95
2023-02-14T22:31:33.260Z,31.48
2023-02-14T22:34:00.617Z,30.52
2023-02-14T22:36:27.966Z,33.05
2023-02-14T22:38:55.346Z,32.35
2023-02-14T22:41:24.431Z,32.83
2023-02-14T22:43:53.218Z,33.83
2023-02-14T22:46:28.261Z,34.15
2023-02-14T22:48:56.677Z,33.88
2023-02-14T22:51:28.965Z,33.47
2023-02-14T22:54:02.041Z,35.10
2023-02-14T22:56:35.550Z,35.00
2023-02-14T22:59:06.234Z,33.55
2023-02-14T23:01:35.183Z,33.92
2023-02-14T23:04:03.695Z,35.58
2023-02-14T23:06:33.156Z,35.72
2023-02-14T23:09:02.126Z,36.42
2023-02-14T23:11:32.237Z,35.15
2023-02-14T23:14:18.702Z,38.42
2023-02-14T23:17:04.942Z,39.85
2023-02-14T23:19:53.444Z,41.05
2023-02-14T23:22:27.038Z,40.83
2023-02-14T23:24:59.678Z,41.95
2023-02-14T23:27:34.498Z,42.72
2023-02-14T23:30:03.801Z,43.80
2023-02-14T23:32:31.238Z,44.45
2023-02-14T23:34:58.988Z,42.83
2023-02-14T23:37:26.420Z,44.13
2023-02-14T23:39:53.768Z,46.03
2023-02-14T23:42:21.157Z,44.42
2023-02-14T23:44:50.293Z,44.97
2023-02-14T23:47:17.768Z,45.10
2023-02-14T23:49:45.986Z,45.17
2023-02-14T23:52:13.981Z,43.80
2023-02-14T23:54:41.493Z,31.20
2023-02-14T23:57:09.041Z,40.20
2023-02-14T23:59:36.479Z,34.67
